sensor_id;sensor_type;location;lat;lon;timestamp;pressure;altitude;pressure_sealevel;temperature;humidity
48968;BME280;46511;53.148;8.204;2023-05-29T00:02:25;102439.28;;;11.37;100.00
48968;BME280;46511;53.148;8.204;2023-05-29T00:04:56;102438.59;;;11.32;100.00
48968;BME280;46511;53.148;8.204;2023-05-29T00:07:31;102443.75;;;11.36;100.00
48968;BME280;46511;53.148;8.204;2023-05-29T00:10:04;102443.47;;;11.18;100.00
48968;BME280;46511;53.148;8.204;2023-05-29T00:12:36;102441.00;;;11.39;100.00
48968;BME280;46511;53.148;8.204;2023-05-29T00:15:08;102444.03;;;11.29;100.00
48968;BME280;46511;53.148;8.204;2023-05-29T00:17:40;102446.69;;;11.29;100.00
48968;BME280;46511;53.148;8.204;2023-05-29T00:20:14;102450.97;;;11.33;100.00
48968;BME280;46511;53.148;8.204;2023-05-29T00:22:45;102452.59;;;11.37;100.00
48968;BME280;46511;53.148;8.204;2023-05-29T00:25:16;102449.94;;;11.10;100.00
48968;BME280;46511;53.148;8.204;2023-05-29T00:27:48;102455.03;;;11.16;100.00
48968;BME280;46511;53.148;8.204;2023-05-29T00:30:20;102446.38;;;11.38;100.00
48968;BME280;46511;53.148;8.204;2023-05-29T00:32:51;102456.59;;;11.24;100.00
48968;BME280;46511;53.148;8.204;2023-05-29T00:35:23;102452.13;;;11.24;100.00
48968;BME280;46511;53.148;8.204;2023-05-29T00:37:54;102451.28;;;11.24;100.00
48968;BME280;46511;53.148;8.204;2023-05-29T00:40:25;102452.78;;;11.04;100.00
48968;BME280;46511;53.148;8.204;2023-05-29T00:42:57;102463.19;;;11.12;100.00
48968;BME280;46511;53.148;8.204;2023-05-29T00:45:28;102454.97;;;11.20;100.00
48968;BME280;46511;53.148;8.204;2023-05-29T00:47:59;102462.03;;;11.21;100.00
48968;BME280;46511;53.148;8.204;2023-05-29T00:50:30;102461.41;;;11.12;100.00
48968;BME280;46511;53.148;8.204;2023-05-29T00:53:03;102464.06;;;11.12;100.00
48968;BME280;46511;53.148;8.204;2023-05-29T00:55:35;102457.34;;;11.01;100.00
48968;BME280;46511;53.148;8.204;2023-05-29T00:58:07;102461.16;;;10.92;100.00
48968;BME280;46511;53.148;8.204;2023-05-29T01:00:38;102459.44;;;10.91;100.00
48968;BME280;46511;53.148;8.204;2023-05-29T01:03:10;102462.72;;;10.99;100.00
48968;BME280;46511;53.148;8.204;2023-05-29T01:05:45;102461.75;;;11.02;100.00
48968;BME280;46511;53.148;8.204;2023-05-29T01:08:17;102469.84;;;10.97;100.00
48968;BME280;46511;53.148;8.204;2023-05-29T01:10:51;102463.31;;;11.07;100.00
48968;BME280;46511;53.148;8.204;2023-05-29T01:13:27;102466.91;;;11.06;100.00
48968;BME280;46511;53.148;8.204;2023-05-29T01:16:08;102473.03;;;11.08;100.00
48968;BME280;46511;53.148;8.204;2023-05-29T01:22:05;102471.50;;;11.01;100.00
48968;BME280;46511;53.148;8.204;2023-05-29T01:24:56;102472.38;;;11.02;100.00
48968;BME280;46511;53.148;8.204;2023-05-29T01:27:35;102460.59;;;10.82;100.00
48968;BME280;46511;53.148;8.204;2023-05-29T01:30:10;102459.31;;;10.94;100.00
48968;BME280;46511;53.148;8.204;2023-05-29T01:32:42;102457.69;;;10.90;100.00
48968;BME280;46511;53.148;8.204;2023-05-29T01:35:14;102455.06;;;10.88;100.00
48968;BME280;46511;53.148;8.204;2023-05-29T01:37:45;102453.81;;;11.00;100.00
48968;BME280;46511;53.148;8.204;2023-05-29T01:40:17;102457.47;;;10.96;100.00
48968;BME280;46511;53.148;8.204;2023-05-29T01:42:49;102458.88;;;10.80;100.00
48968;BME280;46511;53.148;8.204;2023-05-29T01:45:21;102456.84;;;10.88;100.00
48968;BME280;46511;53.148;8.204;2023-05-29T01:47:53;102463.41;;;10.76;100.00
48968;BME280;46511;53.148;8.204;2023-05-29T01:50:25;102465.69;;;10.88;100.00
48968;BME280;46511;53.148;8.204;2023-05-29T01:52:58;102461.44;;;10.83;100.00
48968;BME280;46511;53.148;8.204;2023-05-29T01:55:29;102469.38;;;10.84;100.00
48968;BME280;46511;53.148;8.204;2023-05-29T01:58:01;102480.94;;;10.83;100.00
48968;BME280;46511;53.148;8.204;2023-05-29T02:00:33;102481.06;;;10.79;100.00
48968;BME280;46511;53.148;8.204;2023-05-29T02:03:05;102485.50;;;10.78;100.00
48968;BME280;46511;53.148;8.204;2023-05-29T02:05:37;102473.34;;;10.71;100.00
48968;BME280;46511;53.148;8.204;2023-05-29T02:08:08;102470.69;;;10.70;100.00
48968;BME280;46511;53.148;8.204;2023-05-29T02:10:39;102479.88;;;10.59;100.00
48968;BME280;46511;53.148;8.204;2023-05-29T02:13:11;102477.97;;;10.65;100.00
48968;BME280;46511;53.148;8.204;2023-05-29T02:15:42;102481.81;;;10.54;100.00
48968;BME280;46511;53.148;8.204;2023-05-29T02:18:14;102484.41;;;10.56;100.00
48968;BME280;46511;53.148;8.204;2023-05-29T02:20:46;102482.88;;;10.47;100.00
48968;BME280;46511;53.148;8.204;2023-05-29T02:23:17;102485.53;;;10.47;100.00
48968;BME280;46511;53.148;8.204;2023-05-29T02:25:50;102480.41;;;10.41;100.00
48968;BME280;46511;53.148;8.204;2023-05-29T02:28:21;102476.28;;;10.31;100.00
48968;BME280;46511;53.148;8.204;2023-05-29T02:30:52;102483.00;;;10.44;100.00
48968;BME280;46511;53.148;8.204;2023-05-29T02:33:24;102480.59;;;10.35;100.00
48968;BME280;46511;53.148;8.204;2023-05-29T02:35:56;102478.31;;;10.52;100.00
48968;BME280;46511;53.148;8.204;2023-05-29T02:38:27;102482.84;;;10.49;100.00
48968;BME280;46511;53.148;8.204;2023-05-29T02:40:58;102480.41;;;10.41;100.00
48968;BME280;46511;53.148;8.204;2023-05-29T02:43:29;102478.63;;;10.42;100.00
48968;BME280;46511;53.148;8.204;2023-05-29T02:46:01;102482.50;;;10.30;100.00
48968;BME280;46511;53.148;8.204;2023-05-29T02:48:32;102481.78;;;10.25;100.00
48968;BME280;46511;53.148;8.204;2023-05-29T02:51:03;102481.59;;;10.31;100.00
48968;BME280;46511;53.148;8.204;2023-05-29T02:53:35;102478.09;;;10.29;100.00
48968;BME280;46511;53.148;8.204;2023-05-29T02:56:07;102484.50;;;10.22;100.00
48968;BME280;46511;53.148;8.204;2023-05-29T02:58:39;102486.22;;;10.24;100.00
48968;BME280;46511;53.148;8.204;2023-05-29T03:01:11;102488.00;;;10.24;100.00
48968;BME280;46511;53.148;8.204;2023-05-29T03:03:42;102481.00;;;10.20;100.00
48968;BME280;46511;53.148;8.204;2023-05-29T03:06:14;102478.44;;;10.17;100.00
48968;BME280;46511;53.148;8.204;2023-05-29T03:08:47;102485.56;;;10.15;100.00
48968;BME280;46511;53.148;8.204;2023-05-29T03:11:19;102486.59;;;10.09;100.00
48968;BME280;46511;53.148;8.204;2023-05-29T03:13:51;102479.59;;;10.07;100.00
48968;BME280;46511;53.148;8.204;2023-05-29T03:16:23;102477.25;;;9.96;100.00
48968;BME280;46511;53.148;8.204;2023-05-29T03:18:54;102471.94;;;9.96;100.00
48968;BME280;46511;53.148;8.204;2023-05-29T03:21:26;102475.47;;;9.96;100.00
48968;BME280;46511;53.148;8.204;2023-05-29T03:23:57;102471.06;;;9.94;100.00
48968;BME280;46511;53.148;8.204;2023-05-29T03:26:29;102474.69;;;9.91;100.00
48968;BME280;46511;53.148;8.204;2023-05-29T03:29:00;102478.16;;;9.93;100.00
48968;BME280;46511;53.148;8.204;2023-05-29T03:31:31;102472.81;;;9.96;100.00
48968;BME280;46511;53.148;8.204;2023-05-29T03:34:02;102478.78;;;10.05;100.00
48968;BME280;46511;53.148;8.204;2023-05-29T03:36:34;102483.81;;;10.14;100.00
48968;BME280;46511;53.148;8.204;2023-05-29T03:39:07;102484.50;;;10.22;100.00
48968;BME280;46511;53.148;8.204;2023-05-29T03:41:38;102478.19;;;10.26;100.00
48968;BME280;46511;53.148;8.204;2023-05-29T03:44:10;102493.88;;;10.35;100.00
48968;BME280;46511;53.148;8.204;2023-05-29T03:46:41;102483.97;;;10.40;100.00
48968;BME280;46511;53.148;8.204;2023-05-29T03:49:12;102483.91;;;10.43;100.00
48968;BME280;46511;53.148;8.204;2023-05-29T03:51:44;102481.97;;;10.48;100.00
48968;BME280;46511;53.148;8.204;2023-05-29T03:54:15;102488.09;;;10.50;100.00
48968;BME280;46511;53.148;8.204;2023-05-29T03:56:46;102492.34;;;10.57;100.00
48968;BME280;46511;53.148;8.204;2023-05-29T03:59:18;102495.91;;;10.56;100.00
48968;BME280;46511;53.148;8.204;2023-05-29T04:01:49;102498.47;;;10.59;100.00
48968;BME280;46511;53.148;8.204;2023-05-29T04:04:20;102492.97;;;10.66;100.00
48968;BME280;46511;53.148;8.204;2023-05-29T04:06:52;102505.81;;;10.81;100.00
48968;BME280;46511;53.148;8.204;2023-05-29T04:09:23;102511.09;;;10.82;100.00
48968;BME280;46511;53.148;8.204;2023-05-29T04:11:54;102509.19;;;10.86;100.00
48968;BME280;46511;53.148;8.204;2023-05-29T04:14:26;102504.41;;;10.97;100.00
48968;BME280;46511;53.148;8.204;2023-05-29T04:16:57;102497.72;;;11.13;100.00
48968;BME280;46511;53.148;8.204;2023-05-29T04:19:29;102501.63;;;11.30;100.00
48968;BME280;46511;53.148;8.204;2023-05-29T04:22:00;102515.19;;;11.49;100.00
48968;BME280;46511;53.148;8.204;2023-05-29T04:24:32;102512.06;;;11.62;100.00
48968;BME280;46511;53.148;8.204;2023-05-29T04:27:04;102515.53;;;11.64;100.00
48968;BME280;46511;53.148;8.204;2023-05-29T04:29:35;102509.19;;;11.42;100.00
48968;BME280;46511;53.148;8.204;2023-05-29T04:32:07;102512.81;;;11.94;100.00
48968;BME280;46511;53.148;8.204;2023-05-29T04:34:40;102505.06;;;12.11;100.00
48968;BME280;46511;53.148;8.204;2023-05-29T04:37:15;102511.72;;;12.24;100.00
48968;BME280;46511;53.148;8.204;2023-05-29T04:39:46;102518.00;;;12.47;100.00
48968;BME280;46511;53.148;8.204;2023-05-29T04:42:17;102518.25;;;12.16;100.00
48968;BME280;46511;53.148;8.204;2023-05-29T04:44:49;102521.47;;;12.49;100.00
48968;BME280;46511;53.148;8.204;2023-05-29T04:47:20;102515.69;;;12.61;100.00
48968;BME280;46511;53.148;8.204;2023-05-29T04:49:53;102512.38;;;12.78;100.00
48968;BME280;46511;53.148;8.204;2023-05-29T04:52:25;102529.94;;;12.83;100.00
48968;BME280;46511;53.148;8.204;2023-05-29T04:54:57;102531.47;;;12.91;100.00
48968;BME280;46511;53.148;8.204;2023-05-29T04:57:28;102537.25;;;13.02;100.00
48968;BME280;46511;53.148;8.204;2023-05-29T04:59:59;102541.22;;;13.13;100.00
48968;BME280;46511;53.148;8.204;2023-05-29T05:02:30;102545.38;;;13.22;100.00
48968;BME280;46511;53.148;8.204;2023-05-29T05:05:03;102543.03;;;13.36;100.00
48968;BME280;46511;53.148;8.204;2023-05-29T05:07:34;102541.59;;;13.28;100.00
48968;BME280;46511;53.148;8.204;2023-05-29T05:10:07;102552.81;;;13.58;100.00
48968;BME280;46511;53.148;8.204;2023-05-29T05:12:38;102549.06;;;13.18;100.00
48968;BME280;46511;53.148;8.204;2023-05-29T05:15:10;102544.44;;;13.67;100.00
48968;BME280;46511;53.148;8.204;2023-05-29T05:17:41;102541.13;;;13.60;100.00
48968;BME280;46511;53.148;8.204;2023-05-29T05:20:13;102544.13;;;13.95;100.00
48968;BME280;46511;53.148;8.204;2023-05-29T05:22:44;102536.69;;;13.39;100.00
48968;BME280;46511;53.148;8.204;2023-05-29T05:25:15;102527.47;;;13.68;100.00
48968;BME280;46511;53.148;8.204;2023-05-29T05:27:47;102529.63;;;14.00;100.00
48968;BME280;46511;53.148;8.204;2023-05-29T05:30:18;102532.03;;;14.07;100.00
48968;BME280;46511;53.148;8.204;2023-05-29T05:32:49;102526.63;;;14.08;100.00
48968;BME280;46511;53.148;8.204;2023-05-29T05:35:21;102519.91;;;14.39;100.00
48968;BME280;46511;53.148;8.204;2023-05-29T05:37:53;102519.06;;;14.38;100.00
48968;BME280;46511;53.148;8.204;2023-05-29T05:40:27;102520.56;;;14.45;100.00
48968;BME280;46511;53.148;8.204;2023-05-29T05:42:58;102524.81;;;14.29;100.00
48968;BME280;46511;53.148;8.204;2023-05-29T05:45:30;102522.59;;;15.15;100.00
48968;BME280;46511;53.148;8.204;2023-05-29T05:48:01;102526.72;;;15.59;100.00
48968;BME280;46511;53.148;8.204;2023-05-29T05:50:32;102524.91;;;14.67;100.00
48968;BME280;46511;53.148;8.204;2023-05-29T05:53:04;102522.56;;;14.98;100.00
48968;BME280;46511;53.148;8.204;2023-05-29T05:55:35;102530.22;;;15.42;100.00
48968;BME280;46511;53.148;8.204;2023-05-29T05:58:06;102519.44;;;15.80;100.00
48968;BME280;46511;53.148;8.204;2023-05-29T06:00:39;102530.53;;;15.36;100.00
48968;BME280;46511;53.148;8.204;2023-05-29T06:03:10;102532.56;;;15.31;100.00
48968;BME280;46511;53.148;8.204;2023-05-29T06:05:42;102534.09;;;15.73;100.00
48968;BME280;46511;53.148;8.204;2023-05-29T06:08:14;102533.13;;;16.25;100.00
48968;BME280;46511;53.148;8.204;2023-05-29T06:10:46;102535.38;;;15.83;100.00
48968;BME280;46511;53.148;8.204;2023-05-29T06:13:17;102537.06;;;16.36;100.00
48968;BME280;46511;53.148;8.204;2023-05-29T06:15:48;102539.53;;;16.23;100.00
48968;BME280;46511;53.148;8.204;2023-05-29T06:18:20;102551.31;;;16.87;99.88
48968;BME280;46511;53.148;8.204;2023-05-29T06:20:51;102551.50;;;16.33;95.49
48968;BME280;46511;53.148;8.204;2023-05-29T06:23:23;102549.50;;;18.12;83.12
48968;BME280;46511;53.148;8.204;2023-05-29T06:25:54;102546.38;;;18.48;77.06
48968;BME280;46511;53.148;8.204;2023-05-29T06:28:26;102554.06;;;18.40;72.43
48968;BME280;46511;53.148;8.204;2023-05-29T06:30:57;102555.06;;;19.91;69.91
48968;BME280;46511;53.148;8.204;2023-05-29T06:33:29;102549.78;;;20.15;63.94
48968;BME280;46511;53.148;8.204;2023-05-29T06:36:00;102548.41;;;21.22;57.10
48968;BME280;46511;53.148;8.204;2023-05-29T06:38:32;102547.47;;;22.30;53.95
48968;BME280;46511;53.148;8.204;2023-05-29T06:41:03;102550.94;;;20.76;53.74
48968;BME280;46511;53.148;8.204;2023-05-29T06:43:34;102546.75;;;22.39;50.23
48968;BME280;46511;53.148;8.204;2023-05-29T06:46:06;102553.50;;;21.99;50.29
48968;BME280;46511;53.148;8.204;2023-05-29T06:48:37;102554.13;;;22.60;48.06
48968;BME280;46511;53.148;8.204;2023-05-29T06:51:09;102548.06;;;23.34;46.79
48968;BME280;46511;53.148;8.204;2023-05-29T06:53:42;102551.00;;;22.19;48.35
48968;BME280;46511;53.148;8.204;2023-05-29T06:56:14;102546.66;;;22.74;48.62
48968;BME280;46511;53.148;8.204;2023-05-29T06:58:45;102543.28;;;21.67;48.88
48968;BME280;46511;53.148;8.204;2023-05-29T07:01:17;102549.09;;;23.65;46.04
48968;BME280;46511;53.148;8.204;2023-05-29T07:03:43;102553.34;;;23.36;43.93
48968;BME280;46511;53.148;8.204;2023-05-29T07:06:14;102551.28;;;24.76;42.30
48968;BME280;46511;53.148;8.204;2023-05-29T07:08:46;102557.16;;;24.50;40.65
48968;BME280;46511;53.148;8.204;2023-05-29T07:11:17;102552.47;;;24.32;40.21
48968;BME280;46511;53.148;8.204;2023-05-29T07:13:49;102557.53;;;23.83;41.95
48968;BME280;46511;53.148;8.204;2023-05-29T07:16:15;102547.81;;;23.81;43.19
48968;BME280;46511;53.148;8.204;2023-05-29T07:18:47;102549.66;;;23.37;46.43
48968;BME280;46511;53.148;8.204;2023-05-29T07:21:18;102546.38;;;25.60;40.58
48968;BME280;46511;53.148;8.204;2023-05-29T07:23:51;102553.91;;;21.70;45.77
48968;BME280;46511;53.148;8.204;2023-05-29T07:26:17;102565.53;;;21.10;51.20
48968;BME280;46511;53.148;8.204;2023-05-29T07:28:49;102553.16;;;22.72;45.32
48968;BME280;46511;53.148;8.204;2023-05-29T07:31:20;102568.78;;;24.32;42.31
48968;BME280;46511;53.148;8.204;2023-05-29T07:33:46;102563.47;;;23.77;41.62
48968;BME280;46511;53.148;8.204;2023-05-29T07:36:18;102564.81;;;24.36;42.03
48968;BME280;46511;53.148;8.204;2023-05-29T07:38:49;102569.53;;;26.41;38.50
48968;BME280;46511;53.148;8.204;2023-05-29T07:41:20;102564.47;;;27.48;35.64
48968;BME280;46511;53.148;8.204;2023-05-29T07:43:52;102563.53;;;28.11;36.66
48968;BME280;46511;53.148;8.204;2023-05-29T07:46:23;102572.22;;;26.61;34.91
48968;BME280;46511;53.148;8.204;2023-05-29T07:48:55;102566.25;;;25.51;36.81
48968;BME280;46511;53.148;8.204;2023-05-29T07:51:26;102564.22;;;25.33;36.20
48968;BME280;46511;53.148;8.204;2023-05-29T07:54:00;102563.19;;;28.32;32.52
48968;BME280;46511;53.148;8.204;2023-05-29T07:56:26;102567.53;;;25.47;35.99
48968;BME280;46511;53.148;8.204;2023-05-29T07:58:53;102559.97;;;26.74;35.19
48968;BME280;46511;53.148;8.204;2023-05-29T08:01:23;102562.53;;;26.29;35.86
48968;BME280;46511;53.148;8.204;2023-05-29T08:03:52;102559.44;;;26.61;35.92
48968;BME280;46511;53.148;8.204;2023-05-29T08:06:52;102558.69;;;25.93;36.32
48968;BME280;46511;53.148;8.204;2023-05-29T08:09:26;102561.47;;;28.31;32.48
48968;BME280;46511;53.148;8.204;2023-05-29T08:11:53;102563.53;;;28.29;33.64
48968;BME280;46511;53.148;8.204;2023-05-29T08:14:24;102576.94;;;26.68;34.86
48968;BME280;46511;53.148;8.204;2023-05-29T08:16:56;102553.25;;;27.06;34.55
48968;BME280;46511;53.148;8.204;2023-05-29T08:19:28;102565.16;;;27.32;34.07
48968;BME280;46511;53.148;8.204;2023-05-29T08:21:59;102571.44;;;28.40;32.51
48968;BME280;46511;53.148;8.204;2023-05-29T08:24:30;102572.13;;;26.24;35.22
48968;BME280;46511;53.148;8.204;2023-05-29T08:27:02;102574.47;;;26.75;36.19
48968;BME280;46511;53.148;8.204;2023-05-29T08:29:28;102578.97;;;27.03;35.24
48968;BME280;46511;53.148;8.204;2023-05-29T08:32:00;102574.19;;;28.22;32.35
48968;BME280;46511;53.148;8.204;2023-05-29T08:34:31;102578.44;;;26.14;35.87
48968;BME280;46511;53.148;8.204;2023-05-29T08:37:03;102568.50;;;27.44;34.58
48968;BME280;46511;53.148;8.204;2023-05-29T08:39:36;102576.03;;;26.77;34.53
48968;BME280;46511;53.148;8.204;2023-05-29T08:42:07;102582.09;;;28.43;33.27
48968;BME280;46511;53.148;8.204;2023-05-29T08:48:05;102585.69;;;29.62;31.38
48968;BME280;46511;53.148;8.204;2023-05-29T08:50:43;102594.09;;;29.18;31.13
48968;BME280;46511;53.148;8.204;2023-05-29T08:53:13;102588.47;;;27.45;32.20
48968;BME280;46511;53.148;8.204;2023-05-29T08:55:46;102596.59;;;26.99;33.85
48968;BME280;46511;53.148;8.204;2023-05-29T08:58:21;102596.34;;;26.36;34.88
48968;BME280;46511;53.148;8.204;2023-05-29T09:00:49;102597.34;;;24.77;36.51
48968;BME280;46511;53.148;8.204;2023-05-29T09:03:21;102591.34;;;26.41;35.31
48968;BME280;46511;53.148;8.204;2023-05-29T09:05:57;102578.91;;;27.76;34.41
48968;BME280;46511;53.148;8.204;2023-05-29T09:08:31;102574.56;;;27.38;32.60
48968;BME280;46511;53.148;8.204;2023-05-29T09:11:02;102572.50;;;27.04;32.97
48968;BME280;46511;53.148;8.204;2023-05-29T09:13:34;102581.88;;;28.62;32.49
48968;BME280;46511;53.148;8.204;2023-05-29T09:16:06;102580.56;;;29.75;30.33
48968;BME280;46511;53.148;8.204;2023-05-29T09:18:38;102581.69;;;28.38;32.87
48968;BME280;46511;53.148;8.204;2023-05-29T09:21:09;102582.00;;;27.46;33.44
48968;BME280;46511;53.148;8.204;2023-05-29T09:23:41;102569.88;;;29.32;30.74
48968;BME280;46511;53.148;8.204;2023-05-29T09:26:13;102575.28;;;27.22;33.61
48968;BME280;46511;53.148;8.204;2023-05-29T09:28:45;102575.56;;;26.35;34.35
48968;BME280;46511;53.148;8.204;2023-05-29T09:31:17;102582.81;;;28.09;32.99
48968;BME280;46511;53.148;8.204;2023-05-29T09:33:48;102575.38;;;28.20;32.73
48968;BME280;46511;53.148;8.204;2023-05-29T09:36:23;102576.03;;;29.34;30.15
48968;BME280;46511;53.148;8.204;2023-05-29T09:38:50;102564.19;;;30.16;30.02
48968;BME280;46511;53.148;8.204;2023-05-29T09:41:22;102573.91;;;30.35;30.04
48968;BME280;46511;53.148;8.204;2023-05-29T09:43:55;102578.50;;;28.77;30.99
48968;BME280;46511;53.148;8.204;2023-05-29T09:46:27;102576.91;;;28.40;33.10
48968;BME280;46511;53.148;8.204;2023-05-29T09:49:01;102577.81;;;29.51;30.53
48968;BME280;46511;53.148;8.204;2023-05-29T09:51:32;102576.38;;;30.85;28.71
48968;BME280;46511;53.148;8.204;2023-05-29T09:54:17;102569.38;;;30.75;29.09
48968;BME280;46511;53.148;8.204;2023-05-29T09:56:49;102576.16;;;29.99;31.16
48968;BME280;46511;53.148;8.204;2023-05-29T09:59:21;102572.22;;;30.34;29.96
48968;BME280;46511;53.148;8.204;2023-05-29T10:02:03;102568.56;;;30.41;29.92
48968;BME280;46511;53.148;8.204;2023-05-29T10:04:35;102567.19;;;30.62;29.63
48968;BME280;46511;53.148;8.204;2023-05-29T10:07:08;102578.94;;;28.90;31.39
48968;BME280;46511;53.148;8.204;2023-05-29T10:09:44;102563.34;;;32.56;26.57
48968;BME280;46511;53.148;8.204;2023-05-29T10:12:19;102566.03;;;30.95;29.24
48968;BME280;46511;53.148;8.204;2023-05-29T10:14:49;102562.94;;;29.94;29.74
48968;BME280;46511;53.148;8.204;2023-05-29T10:17:23;102567.00;;;28.39;30.56
48968;BME280;46511;53.148;8.204;2023-05-29T10:19:56;102563.25;;;27.78;32.42
48968;BME280;46511;53.148;8.204;2023-05-29T10:23:00;102567.69;;;28.93;30.62
48968;BME280;46511;53.148;8.204;2023-05-29T10:25:33;102564.72;;;29.28;30.95
48968;BME280;46511;53.148;8.204;2023-05-29T10:28:07;102559.91;;;27.21;33.69
48968;BME280;46511;53.148;8.204;2023-05-29T10:31:08;102567.59;;;30.10;31.10
48968;BME280;46511;53.148;8.204;2023-05-29T10:33:37;102553.88;;;30.02;30.58
48968;BME280;46511;53.148;8.204;2023-05-29T10:36:34;102550.66;;;29.15;31.19
48968;BME280;46511;53.148;8.204;2023-05-29T10:39:04;102547.72;;;30.24;31.27
48968;BME280;46511;53.148;8.204;2023-05-29T10:41:35;102559.63;;;32.11;28.10
48968;BME280;46511;53.148;8.204;2023-05-29T10:49:30;102557.03;;;31.49;28.01
48968;BME280;46511;53.148;8.204;2023-05-29T10:52:02;102564.50;;;32.24;28.29
48968;BME280;46511;53.148;8.204;2023-05-29T10:54:40;102554.53;;;29.63;29.35
48968;BME280;46511;53.148;8.204;2023-05-29T10:57:15;102552.00;;;30.10;29.08
48968;BME280;46511;53.148;8.204;2023-05-29T10:59:41;102553.78;;;28.60;31.57
48968;BME280;46511;53.148;8.204;2023-05-29T11:02:11;102555.41;;;30.29;29.93
48968;BME280;46511;53.148;8.204;2023-05-29T11:07:51;102538.78;;;30.94;28.46
48968;BME280;46511;53.148;8.204;2023-05-29T11:10:40;102553.91;;;31.29;30.89
48968;BME280;46511;53.148;8.204;2023-05-29T11:16:05;102540.28;;;30.65;29.20
48968;BME280;46511;53.148;8.204;2023-05-29T11:18:42;102537.34;;;30.67;29.40
48968;BME280;46511;53.148;8.204;2023-05-29T11:23:57;102542.31;;;31.65;28.85
48968;BME280;46511;53.148;8.204;2023-05-29T11:26:26;102543.53;;;31.39;28.17
48968;BME280;46511;53.148;8.204;2023-05-29T11:28:59;102547.63;;;30.73;28.66
48968;BME280;46511;53.148;8.204;2023-05-29T11:31:33;102540.13;;;31.37;28.00
48968;BME280;46511;53.148;8.204;2023-05-29T11:34:07;102543.03;;;30.41;29.36
48968;BME280;46511;53.148;8.204;2023-05-29T11:36:35;102551.59;;;31.64;28.47
48968;BME280;46511;53.148;8.204;2023-05-29T11:39:04;102534.16;;;30.39;29.82
48968;BME280;46511;53.148;8.204;2023-05-29T11:41:31;102543.59;;;32.00;27.94
48968;BME280;46511;53.148;8.204;2023-05-29T11:44:01;102540.59;;;31.64;28.60
48968;BME280;46511;53.148;8.204;2023-05-29T11:46:34;102547.13;;;31.09;30.13
48968;BME280;46511;53.148;8.204;2023-05-29T11:49:05;102545.72;;;32.13;27.30
48968;BME280;46511;53.148;8.204;2023-05-29T11:51:36;102549.22;;;32.06;27.68
48968;BME280;46511;53.148;8.204;2023-05-29T11:54:11;102547.97;;;31.94;27.51
48968;BME280;46511;53.148;8.204;2023-05-29T11:56:42;102544.69;;;30.75;27.95
48968;BME280;46511;53.148;8.204;2023-05-29T11:59:15;102554.34;;;30.46;29.92
48968;BME280;46511;53.148;8.204;2023-05-29T12:01:46;102539.19;;;31.45;29.21
48968;BME280;46511;53.148;8.204;2023-05-29T12:04:19;102539.16;;;29.62;31.17
48968;BME280;46511;53.148;8.204;2023-05-29T12:06:45;102537.72;;;31.34;28.80
48968;BME280;46511;53.148;8.204;2023-05-29T12:09:23;102547.34;;;30.35;28.36
48968;BME280;46511;53.148;8.204;2023-05-29T12:12:04;102546.13;;;30.46;30.12
48968;BME280;46511;53.148;8.204;2023-05-29T12:14:36;102539.56;;;30.72;29.76
48968;BME280;46511;53.148;8.204;2023-05-29T12:17:08;102541.97;;;30.66;28.80
48968;BME280;46511;53.148;8.204;2023-05-29T12:19:39;102542.75;;;31.99;27.42
48968;BME280;46511;53.148;8.204;2023-05-29T12:22:11;102550.00;;;31.92;28.79
48968;BME280;46511;53.148;8.204;2023-05-29T12:24:42;102542.59;;;30.05;29.49
48968;BME280;46511;53.148;8.204;2023-05-29T12:27:14;102559.69;;;29.58;31.23
48968;BME280;46511;53.148;8.204;2023-05-29T12:29:45;102552.66;;;31.01;28.84
48968;BME280;46511;53.148;8.204;2023-05-29T12:32:17;102555.72;;;30.97;32.04
48968;BME280;46511;53.148;8.204;2023-05-29T12:34:50;102558.97;;;31.09;28.35
48968;BME280;46511;53.148;8.204;2023-05-29T12:37:22;102553.44;;;29.32;31.60
48968;BME280;46511;53.148;8.204;2023-05-29T12:40:09;102554.16;;;29.42;29.95
48968;BME280;46511;53.148;8.204;2023-05-29T12:42:47;102551.31;;;30.00;29.59
48968;BME280;46511;53.148;8.204;2023-05-29T12:45:17;102546.13;;;28.98;31.21
48968;BME280;46511;53.148;8.204;2023-05-29T12:47:53;102554.91;;;29.84;31.22
48968;BME280;46511;53.148;8.204;2023-05-29T12:50:30;102561.38;;;30.49;28.45
48968;BME280;46511;53.148;8.204;2023-05-29T12:53:12;102559.34;;;29.94;29.33
48968;BME280;46511;53.148;8.204;2023-05-29T12:55:46;102564.44;;;28.97;30.40
48968;BME280;46511;53.148;8.204;2023-05-29T12:58:17;102545.47;;;29.54;30.33
48968;BME280;46511;53.148;8.204;2023-05-29T13:00:52;102553.19;;;28.74;31.24
48968;BME280;46511;53.148;8.204;2023-05-29T13:03:22;102558.22;;;28.87;31.33
48968;BME280;46511;53.148;8.204;2023-05-29T13:05:56;102553.19;;;29.00;30.49
48968;BME280;46511;53.148;8.204;2023-05-29T13:08:27;102568.72;;;27.96;31.59
48968;BME280;46511;53.148;8.204;2023-05-29T13:10:54;102550.97;;;27.47;32.51
48968;BME280;46511;53.148;8.204;2023-05-29T13:13:25;102564.19;;;27.69;32.56
48968;BME280;46511;53.148;8.204;2023-05-29T13:15:57;102547.94;;;27.85;31.88
48968;BME280;46511;53.148;8.204;2023-05-29T13:18:28;102548.56;;;27.61;33.37
48968;BME280;46511;53.148;8.204;2023-05-29T13:20:59;102550.28;;;28.76;30.16
48968;BME280;46511;53.148;8.204;2023-05-29T13:23:31;102561.69;;;27.58;30.87
48968;BME280;46511;53.148;8.204;2023-05-29T13:26:03;102551.25;;;27.89;30.79
48968;BME280;46511;53.148;8.204;2023-05-29T13:28:30;102545.72;;;28.85;30.13
48968;BME280;46511;53.148;8.204;2023-05-29T13:31:01;102551.06;;;27.10;32.66
48968;BME280;46511;53.148;8.204;2023-05-29T13:33:33;102551.22;;;27.53;31.33